sensor_id;sensor_type;location;lat;lon;timestamp;temperature;humidity
78516;SHT31;67815;51.990;5.688;2023-02-25T00:02:23;6.8;66.7
78516;SHT31;67815;51.990;5.688;2023-02-25T00:04:52;6.8;66.5
78516;SHT31;67815;51.990;5.688;2023-02-25T00:07:22;6.8;66.5
78516;SHT31;67815;51.990;5.688;2023-02-25T00:09:54;6.8;66.6
78516;SHT31;67815;51.990;5.688;2023-02-25T00:12:24;6.7;67.0
78516;SHT31;67815;51.990;5.688;2023-02-25T00:14:56;6.7;66.9
78516;SHT31;67815;51.990;5.688;2023-02-25T00:17:27;6.7;67.5
78516;SHT31;67815;51.990;5.688;2023-02-25T00:19:57;6.7;67.4
78516;SHT31;67815;51.990;5.688;2023-02-25T00:22:27;6.7;67.1
78516;SHT31;67815;51.990;5.688;2023-02-25T00:24:57;6.7;67.2
78516;SHT31;67815;51.990;5.688;2023-02-25T00:27:27;6.7;66.7
78516;SHT31;67815;51.990;5.688;2023-02-25T00:29:57;6.7;66.9
78516;SHT31;67815;51.990;5.688;2023-02-25T00:32:27;6.7;66.9
78516;SHT31;67815;51.990;5.688;2023-02-25T00:34:56;6.7;67.0
78516;SHT31;67815;51.990;5.688;2023-02-25T00:37:27;6.7;67.0
78516;SHT31;67815;51.990;5.688;2023-02-25T00:39:58;6.7;67.5
78516;SHT31;67815;51.990;5.688;2023-02-25T00:42:28;6.7;67.4
78516;SHT31;67815;51.990;5.688;2023-02-25T00:44:57;6.7;67.7
78516;SHT31;67815;51.990;5.688;2023-02-25T00:47:27;6.7;67.9
78516;SHT31;67815;51.990;5.688;2023-02-25T00:49:56;6.7;67.9
78516;SHT31;67815;51.990;5.688;2023-02-25T00:52:28;6.7;67.9
78516;SHT31;67815;51.990;5.688;2023-02-25T00:54:57;6.7;67.9
78516;SHT31;67815;51.990;5.688;2023-02-25T00:57:27;6.7;68.2
78516;SHT31;67815;51.990;5.688;2023-02-25T00:59:57;6.7;67.9
78516;SHT31;67815;51.990;5.688;2023-02-25T01:02:26;6.7;68.1
78516;SHT31;67815;51.990;5.688;2023-02-25T01:04:57;6.7;67.9
78516;SHT31;67815;51.990;5.688;2023-02-25T01:07:28;6.7;67.0
78516;SHT31;67815;51.990;5.688;2023-02-25T01:09:58;6.8;67.5
78516;SHT31;67815;51.990;5.688;2023-02-25T01:12:29;6.8;67.3
78516;SHT31;67815;51.990;5.688;2023-02-25T01:14:59;6.8;67.0
78516;SHT31;67815;51.990;5.688;2023-02-25T01:17:29;6.8;66.6
78516;SHT31;67815;51.990;5.688;2023-02-25T01:19:59;6.8;67.0
78516;SHT31;67815;51.990;5.688;2023-02-25T01:22:31;6.8;67.6
78516;SHT31;67815;51.990;5.688;2023-02-25T01:25:01;6.8;66.7
78516;SHT31;67815;51.990;5.688;2023-02-25T01:27:31;6.8;67.3
78516;SHT31;67815;51.990;5.688;2023-02-25T01:30:01;6.9;66.4
78516;SHT31;67815;51.990;5.688;2023-02-25T01:32:31;6.9;66.4
78516;SHT31;67815;51.990;5.688;2023-02-25T01:35:03;6.9;66.3
78516;SHT31;67815;51.990;5.688;2023-02-25T01:37:32;6.9;66.3
78516;SHT31;67815;51.990;5.688;2023-02-25T01:40:03;6.9;66.5
78516;SHT31;67815;51.990;5.688;2023-02-25T01:42:35;6.9;66.9
78516;SHT31;67815;51.990;5.688;2023-02-25T01:45:27;6.9;66.7
78516;SHT31;67815;51.990;5.688;2023-02-25T01:48:02;6.9;66.3
78516;SHT31;67815;51.990;5.688;2023-02-25T01:50:39;6.9;66.5
78516;SHT31;67815;51.990;5.688;2023-02-25T01:53:12;6.9;66.7
78516;SHT31;67815;51.990;5.688;2023-02-25T01:55:45;6.9;66.7
78516;SHT31;67815;51.990;5.688;2023-02-25T01:58:16;6.9;66.9
78516;SHT31;67815;51.990;5.688;2023-02-25T02:00:47;6.9;66.6
78516;SHT31;67815;51.990;5.688;2023-02-25T02:03:25;6.9;66.6
78516;SHT31;67815;51.990;5.688;2023-02-25T02:06:08;6.9;66.3
78516;SHT31;67815;51.990;5.688;2023-02-25T02:08:41;6.9;66.9
78516;SHT31;67815;51.990;5.688;2023-02-25T02:11:12;6.9;66.5
78516;SHT31;67815;51.990;5.688;2023-02-25T02:13:45;6.9;67.0
78516;SHT31;67815;51.990;5.688;2023-02-25T02:16:38;6.9;66.8
78516;SHT31;67815;51.990;5.688;2023-02-25T02:19:24;6.9;67.2
78516;SHT31;67815;51.990;5.688;2023-02-25T02:22:02;6.9;67.2
78516;SHT31;67815;51.990;5.688;2023-02-25T02:25:49;6.9;67.1
78516;SHT31;67815;51.990;5.688;2023-02-25T02:28:49;6.9;67.6
78516;SHT31;67815;51.990;5.688;2023-02-25T02:31:35;6.9;67.3
78516;SHT31;67815;51.990;5.688;2023-02-25T02:34:21;6.9;67.6
78516;SHT31;67815;51.990;5.688;2023-02-25T02:37:06;6.9;67.5
78516;SHT31;67815;51.990;5.688;2023-02-25T02:39:50;6.9;67.2
78516;SHT31;67815;51.990;5.688;2023-02-25T02:42:29;6.9;67.2
78516;SHT31;67815;51.990;5.688;2023-02-25T02:45:07;6.9;67.5
78516;SHT31;67815;51.990;5.688;2023-02-25T02:47:41;6.9;67.3
78516;SHT31;67815;51.990;5.688;2023-02-25T02:50:13;6.9;67.8
78516;SHT31;67815;51.990;5.688;2023-02-25T02:52:51;6.9;66.9
78516;SHT31;67815;51.990;5.688;2023-02-25T02:55:25;7.0;67.5
78516;SHT31;67815;51.990;5.688;2023-02-25T02:58:00;7.0;67.1
78516;SHT31;67815;51.990;5.688;2023-02-25T03:00:36;7.0;67.2
78516;SHT31;67815;51.990;5.688;2023-02-25T03:03:12;7.0;67.2
78516;SHT31;67815;51.990;5.688;2023-02-25T03:05:48;7.0;67.0
78516;SHT31;67815;51.990;5.688;2023-02-25T03:08:23;7.0;66.8
78516;SHT31;67815;51.990;5.688;2023-02-25T03:10:54;7.0;67.6
78516;SHT31;67815;51.990;5.688;2023-02-25T03:13:24;7.0;67.3
78516;SHT31;67815;51.990;5.688;2023-02-25T03:15:54;7.0;67.7
78516;SHT31;67815;51.990;5.688;2023-02-25T03:18:31;7.0;67.7
78516;SHT31;67815;51.990;5.688;2023-02-25T03:21:07;7.0;67.3
78516;SHT31;67815;51.990;5.688;2023-02-25T03:23:40;7.0;67.4
78516;SHT31;67815;51.990;5.688;2023-02-25T03:26:21;7.0;67.4
78516;SHT31;67815;51.990;5.688;2023-02-25T03:28:53;7.0;67.7
78516;SHT31;67815;51.990;5.688;2023-02-25T03:31:25;7.0;67.5
78516;SHT31;67815;51.990;5.688;2023-02-25T03:34:02;7.1;67.6
78516;SHT31;67815;51.990;5.688;2023-02-25T03:36:39;7.1;67.1
78516;SHT31;67815;51.990;5.688;2023-02-25T03:39:13;7.1;66.7
78516;SHT31;67815;51.990;5.688;2023-02-25T03:41:51;7.1;66.9
78516;SHT31;67815;51.990;5.688;2023-02-25T03:44:27;7.1;67.2
78516;SHT31;67815;51.990;5.688;2023-02-25T03:47:00;7.0;67.3
78516;SHT31;67815;51.990;5.688;2023-02-25T03:49:35;7.0;67.6
78516;SHT31;67815;51.990;5.688;2023-02-25T03:52:12;7.0;67.5
78516;SHT31;67815;51.990;5.688;2023-02-25T03:54:42;7.0;67.7
78516;SHT31;67815;51.990;5.688;2023-02-25T03:57:12;7.1;67.4
78516;SHT31;67815;51.990;5.688;2023-02-25T03:59:42;7.1;67.0
78516;SHT31;67815;51.990;5.688;2023-02-25T04:02:16;7.1;66.7
78516;SHT31;67815;51.990;5.688;2023-02-25T04:04:47;7.1;66.6
78516;SHT31;67815;51.990;5.688;2023-02-25T04:07:17;7.1;67.0
78516;SHT31;67815;51.990;5.688;2023-02-25T04:09:46;7.1;66.8
78516;SHT31;67815;51.990;5.688;2023-02-25T04:12:16;7.1;66.1
78516;SHT31;67815;51.990;5.688;2023-02-25T04:14:45;7.1;67.3
78516;SHT31;67815;51.990;5.688;2023-02-25T04:17:15;7.1;67.7
78516;SHT31;67815;51.990;5.688;2023-02-25T04:19:45;7.1;68.6
78516;SHT31;67815;51.990;5.688;2023-02-25T04:22:15;7.1;68.2
78516;SHT31;67815;51.990;5.688;2023-02-25T04:24:44;7.1;68.5
78516;SHT31;67815;51.990;5.688;2023-02-25T04:27:14;7.1;67.9
78516;SHT31;67815;51.990;5.688;2023-02-25T04:29:44;7.1;67.5
78516;SHT31;67815;51.990;5.688;2023-02-25T04:32:14;7.1;67.0
78516;SHT31;67815;51.990;5.688;2023-02-25T04:34:43;7.1;66.7
78516;SHT31;67815;51.990;5.688;2023-02-25T04:37:13;7.1;67.1
78516;SHT31;67815;51.990;5.688;2023-02-25T04:39:43;7.1;67.0
78516;SHT31;67815;51.990;5.688;2023-02-25T04:42:15;7.0;66.8
78516;SHT31;67815;51.990;5.688;2023-02-25T04:44:44;7.0;66.4
78516;SHT31;67815;51.990;5.688;2023-02-25T04:47:14;7.0;66.3
78516;SHT31;67815;51.990;5.688;2023-02-25T04:49:45;7.0;66.3
78516;SHT31;67815;51.990;5.688;2023-02-25T04:52:15;6.9;66.0
78516;SHT31;67815;51.990;5.688;2023-02-25T04:54:44;6.9;66.2
78516;SHT31;67815;51.990;5.688;2023-02-25T04:57:16;6.9;66.0
78516;SHT31;67815;51.990;5.688;2023-02-25T04:59:46;6.9;66.3
78516;SHT31;67815;51.990;5.688;2023-02-25T05:02:18;6.8;66.1
78516;SHT31;67815;51.990;5.688;2023-02-25T05:04:48;6.8;66.1
78516;SHT31;67815;51.990;5.688;2023-02-25T05:07:21;6.8;66.6
78516;SHT31;67815;51.990;5.688;2023-02-25T05:09:50;6.7;66.4
78516;SHT31;67815;51.990;5.688;2023-02-25T05:12:20;6.7;65.8
78516;SHT31;67815;51.990;5.688;2023-02-25T05:14:49;6.7;66.4
78516;SHT31;67815;51.990;5.688;2023-02-25T05:17:19;6.7;66.5
78516;SHT31;67815;51.990;5.688;2023-02-25T05:19:48;6.6;66.2
78516;SHT31;67815;51.990;5.688;2023-02-25T05:22:18;6.6;65.9
78516;SHT31;67815;51.990;5.688;2023-02-25T05:24:49;6.6;66.1
78516;SHT31;67815;51.990;5.688;2023-02-25T05:27:19;6.6;66.9
78516;SHT31;67815;51.990;5.688;2023-02-25T05:29:48;6.6;65.8
78516;SHT31;67815;51.990;5.688;2023-02-25T05:32:18;6.6;66.9
78516;SHT31;67815;51.990;5.688;2023-02-25T05:34:48;6.6;66.3
78516;SHT31;67815;51.990;5.688;2023-02-25T05:37:17;6.6;66.2
78516;SHT31;67815;51.990;5.688;2023-02-25T05:39:47;6.6;66.5
78516;SHT31;67815;51.990;5.688;2023-02-25T05:42:18;6.6;67.3
78516;SHT31;67815;51.990;5.688;2023-02-25T05:44:48;6.6;67.4
78516;SHT31;67815;51.990;5.688;2023-02-25T05:47:17;6.6;67.1
78516;SHT31;67815;51.990;5.688;2023-02-25T05:49:49;6.6;67.9
78516;SHT31;67815;51.990;5.688;2023-02-25T05:52:18;6.6;67.3
78516;SHT31;67815;51.990;5.688;2023-02-25T05:54:48;6.6;66.5
78516;SHT31;67815;51.990;5.688;2023-02-25T05:57:17;6.6;67.1
78516;SHT31;67815;51.990;5.688;2023-02-25T05:59:48;6.6;66.9
78516;SHT31;67815;51.990;5.688;2023-02-25T06:02:18;6.7;67.2
78516;SHT31;67815;51.990;5.688;2023-02-25T06:04:48;6.7;67.4
78516;SHT31;67815;51.990;5.688;2023-02-25T06:07:21;6.7;67.4
78516;SHT31;67815;51.990;5.688;2023-02-25T06:09:50;6.7;67.1
78516;SHT31;67815;51.990;5.688;2023-02-25T06:12:21;6.7;67.3
78516;SHT31;67815;51.990;5.688;2023-02-25T06:14:50;6.7;67.6
78516;SHT31;67815;51.990;5.688;2023-02-25T06:17:20;6.7;68.0
78516;SHT31;67815;51.990;5.688;2023-02-25T06:19:52;6.7;68.5
78516;SHT31;67815;51.990;5.688;2023-02-25T06:22:22;6.7;68.6
78516;SHT31;67815;51.990;5.688;2023-02-25T06:24:52;6.7;68.5
78516;SHT31;67815;51.990;5.688;2023-02-25T06:27:21;6.8;68.9
78516;SHT31;67815;51.990;5.688;2023-02-25T06:29:51;6.8;68.8
78516;SHT31;67815;51.990;5.688;2023-02-25T06:32:21;6.8;68.8
78516;SHT31;67815;51.990;5.688;2023-02-25T06:34:50;6.8;68.6
78516;SHT31;67815;51.990;5.688;2023-02-25T06:37:20;6.8;68.9
78516;SHT31;67815;51.990;5.688;2023-02-25T06:39:51;6.8;68.5
78516;SHT31;67815;51.990;5.688;2023-02-25T06:42:21;6.8;68.3
78516;SHT31;67815;51.990;5.688;2023-02-25T06:44:51;6.8;68.7
78516;SHT31;67815;51.990;5.688;2023-02-25T06:47:22;6.9;68.2
78516;SHT31;67815;51.990;5.688;2023-02-25T06:49:52;6.9;67.9
78516;SHT31;67815;51.990;5.688;2023-02-25T06:52:23;6.8;67.5
78516;SHT31;67815;51.990;5.688;2023-02-25T06:54:53;6.8;67.8
78516;SHT31;67815;51.990;5.688;2023-02-25T06:57:22;6.8;68.0
78516;SHT31;67815;51.990;5.688;2023-02-25T06:59:52;6.8;67.9
78516;SHT31;67815;51.990;5.688;2023-02-25T07:02:24;6.7;68.1
78516;SHT31;67815;51.990;5.688;2023-02-25T07:04:54;6.7;68.5
78516;SHT31;67815;51.990;5.688;2023-02-25T07:07:24;6.7;68.6
78516;SHT31;67815;51.990;5.688;2023-02-25T07:09:53;6.7;68.7
78516;SHT31;67815;51.990;5.688;2023-02-25T07:12:25;6.7;69.0
78516;SHT31;67815;51.990;5.688;2023-02-25T07:14:54;6.6;68.9
78516;SHT31;67815;51.990;5.688;2023-02-25T07:17:24;6.6;69.7
78516;SHT31;67815;51.990;5.688;2023-02-25T07:19:54;6.6;70.1
78516;SHT31;67815;51.990;5.688;2023-02-25T07:22:24;6.6;70.4
78516;SHT31;67815;51.990;5.688;2023-02-25T07:24:55;6.6;70.6
78516;SHT31;67815;51.990;5.688;2023-02-25T07:27:25;6.6;70.8
78516;SHT31;67815;51.990;5.688;2023-02-25T07:29:55;6.7;69.8
78516;SHT31;67815;51.990;5.688;2023-02-25T07:32:28;6.7;70.6
78516;SHT31;67815;51.990;5.688;2023-02-25T07:34:58;6.7;70.3
78516;SHT31;67815;51.990;5.688;2023-02-25T07:37:27;6.7;70.3
78516;SHT31;67815;51.990;5.688;2023-02-25T07:39:57;6.7;70.9
78516;SHT31;67815;51.990;5.688;2023-02-25T07:42:27;6.8;70.2
78516;SHT31;67815;51.990;5.688;2023-02-25T07:44:57;6.8;70.6
78516;SHT31;67815;51.990;5.688;2023-02-25T07:47:29;6.8;70.7
78516;SHT31;67815;51.990;5.688;2023-02-25T07:49:58;6.8;70.7
78516;SHT31;67815;51.990;5.688;2023-02-25T07:52:28;6.8;70.4
78516;SHT31;67815;51.990;5.688;2023-02-25T07:54:58;6.8;70.4
78516;SHT31;67815;51.990;5.688;2023-02-25T07:57:29;6.9;70.8
78516;SHT31;67815;51.990;5.688;2023-02-25T07:59:58;6.9;70.9
78516;SHT31;67815;51.990;5.688;2023-02-25T08:02:28;6.9;70.1
78516;SHT31;67815;51.990;5.688;2023-02-25T08:04:58;6.9;70.6
78516;SHT31;67815;51.990;5.688;2023-02-25T08:07:28;6.9;70.2
78516;SHT31;67815;51.990;5.688;2023-02-25T08:10:00;7.0;70.6
78516;SHT31;67815;51.990;5.688;2023-02-25T08:12:29;7.0;70.2
78516;SHT31;67815;51.990;5.688;2023-02-25T08:15:00;7.0;70.0
78516;SHT31;67815;51.990;5.688;2023-02-25T08:17:34;7.0;69.4
78516;SHT31;67815;51.990;5.688;2023-02-25T08:20:05;7.1;69.1
78516;SHT31;67815;51.990;5.688;2023-02-25T08:22:36;7.1;68.8
78516;SHT31;67815;51.990;5.688;2023-02-25T08:25:06;7.1;68.8
78516;SHT31;67815;51.990;5.688;2023-02-25T08:27:37;7.1;69.0
78516;SHT31;67815;51.990;5.688;2023-02-25T08:30:10;7.1;69.4
78516;SHT31;67815;51.990;5.688;2023-02-25T08:32:41;7.1;69.1
78516;SHT31;67815;51.990;5.688;2023-02-25T08:35:11;7.1;69.1
78516;SHT31;67815;51.990;5.688;2023-02-25T08:37:42;7.1;69.2
78516;SHT31;67815;51.990;5.688;2023-02-25T08:40:13;7.1;69.3
78516;SHT31;67815;51.990;5.688;2023-02-25T08:42:42;7.1;69.1
78516;SHT31;67815;51.990;5.688;2023-02-25T08:45:12;7.1;69.8
78516;SHT31;67815;51.990;5.688;2023-02-25T08:47:42;7.1;70.2
78516;SHT31;67815;51.990;5.688;2023-02-25T08:50:12;7.2;68.1
78516;SHT31;67815;51.990;5.688;2023-02-25T08:52:43;7.2;68.5
78516;SHT31;67815;51.990;5.688;2023-02-25T08:55:15;7.2;68.3
78516;SHT31;67815;51.990;5.688;2023-02-25T08:57:45;7.2;68.0
78516;SHT31;67815;51.990;5.688;2023-02-25T09:00:16;7.2;68.2
78516;SHT31;67815;51.990;5.688;2023-02-25T09:02:47;7.2;69.4
78516;SHT31;67815;51.990;5.688;2023-02-25T09:05:19;7.3;70.0
78516;SHT31;67815;51.990;5.688;2023-02-25T09:07:51;7.3;70.0
78516;SHT31;67815;51.990;5.688;2023-02-25T09:10:21;7.3;67.3
78516;SHT31;67815;51.990;5.688;2023-02-25T09:12:51;7.4;67.3
78516;SHT31;67815;51.990;5.688;2023-02-25T09:15:21;7.4;68.1
78516;SHT31;67815;51.990;5.688;2023-02-25T09:17:51;7.4;66.9
78516;SHT31;67815;51.990;5.688;2023-02-25T09:20:20;7.4;67.8
78516;SHT31;67815;51.990;5.688;2023-02-25T09:22:52;7.5;65.9
78516;SHT31;67815;51.990;5.688;2023-02-25T09:25:22;7.5;65.8
78516;SHT31;67815;51.990;5.688;2023-02-25T09:27:52;7.5;64.9
78516;SHT31;67815;51.990;5.688;2023-02-25T09:30:22;7.6;64.7
78516;SHT31;67815;51.990;5.688;2023-02-25T09:32:52;7.6;64.5
78516;SHT31;67815;51.990;5.688;2023-02-25T09:35:23;7.6;64.3
78516;SHT31;67815;51.990;5.688;2023-02-25T09:37:52;7.7;65.7
78516;SHT31;67815;51.990;5.688;2023-02-25T09:40:22;7.7;64.7
78516;SHT31;67815;51.990;5.688;2023-02-25T09:43:04;7.7;65.0
78516;SHT31;67815;51.990;5.688;2023-02-25T09:45:36;7.8;65.2
78516;SHT31;67815;51.990;5.688;2023-02-25T09:48:16;7.8;63.2
78516;SHT31;67815;51.990;5.688;2023-02-25T09:50:52;7.8;63.3
78516;SHT31;67815;51.990;5.688;2023-02-25T09:53:28;7.9;62.5
78516;SHT31;67815;51.990;5.688;2023-02-25T09:56:00;7.9;62.5
78516;SHT31;67815;51.990;5.688;2023-02-25T09:58:37;7.9;62.0
78516;SHT31;67815;51.990;5.688;2023-02-25T10:01:15;8.0;60.8
78516;SHT31;67815;51.990;5.688;2023-02-25T10:03:54;8.0;60.1
78516;SHT31;67815;51.990;5.688;2023-02-25T10:06:33;8.0;60.2
78516;SHT31;67815;51.990;5.688;2023-02-25T10:09:20;8.0;58.3
78516;SHT31;67815;51.990;5.688;2023-02-25T10:11:55;8.0;58.7
78516;SHT31;67815;51.990;5.688;2023-02-25T10:14:45;8.0;59.4
78516;SHT31;67815;51.990;5.688;2023-02-25T10:17:27;8.1;58.0
78516;SHT31;67815;51.990;5.688;2023-02-25T10:20:17;8.1;58.7
78516;SHT31;67815;51.990;5.688;2023-02-25T10:22:58;8.1;58.5
78516;SHT31;67815;51.990;5.688;2023-02-25T10:25:36;8.1;59.2
78516;SHT31;67815;51.990;5.688;2023-02-25T10:28:16;8.1;59.4
78516;SHT31;67815;51.990;5.688;2023-02-25T10:30:52;8.1;58.6
78516;SHT31;67815;51.990;5.688;2023-02-25T10:33:26;8.1;57.9
78516;SHT31;67815;51.990;5.688;2023-02-25T10:36:02;8.1;57.7
78516;SHT31;67815;51.990;5.688;2023-02-25T10:38:37;8.1;57.5
78516;SHT31;67815;51.990;5.688;2023-02-25T10:41:10;8.1;57.5
78516;SHT31;67815;51.990;5.688;2023-02-25T10:43:42;8.1;57.6
78516;SHT31;67815;51.990;5.688;2023-02-25T10:46:26;8.1;57.3
78516;SHT31;67815;51.990;5.688;2023-02-25T10:48:56;8.1;57.0
78516;SHT31;67815;51.990;5.688;2023-02-25T10:51:28;8.1;58.1
78516;SHT31;67815;51.990;5.688;2023-02-25T10:54:10;8.1;59.5
78516;SHT31;67815;51.990;5.688;2023-02-25T10:56:44;8.1;58.7
78516;SHT31;67815;51.990;5.688;2023-02-25T10:59:26;8.1;59.6
78516;SHT31;67815;51.990;5.688;2023-02-25T11:01:57;8.2;56.0
78516;SHT31;67815;51.990;5.688;2023-02-25T11:04:36;8.2;57.0
78516;SHT31;67815;51.990;5.688;2023-02-25T11:07:27;8.2;53.7
78516;SHT31;67815;51.990;5.688;2023-02-25T11:10:12;8.2;52.4
78516;SHT31;67815;51.990;5.688;2023-02-25T11:12:45;8.2;50.7
78516;SHT31;67815;51.990;5.688;2023-02-25T11:15:30;8.2;50.8
78516;SHT31;67815;51.990;5.688;2023-02-25T11:18:14;8.1;51.3
78516;SHT31;67815;51.990;5.688;2023-02-25T11:20:49;8.1;51.9
78516;SHT31;67815;51.990;5.688;2023-02-25T11:23:26;8.1;53.0
78516;SHT31;67815;51.990;5.688;2023-02-25T11:25:58;8.0;52.1
78516;SHT31;67815;51.990;5.688;2023-02-25T11:28:36;8.0;53.2
78516;SHT31;67815;51.990;5.688;2023-02-25T11:31:16;8.0;51.7
78516;SHT31;67815;51.990;5.688;2023-02-25T11:33:50;8.0;52.3
78516;SHT31;67815;51.990;5.688;2023-02-25T11:36:28;8.0;53.7
78516;SHT31;67815;51.990;5.688;2023-02-25T11:39:14;8.0;51.3
78516;SHT31;67815;51.990;5.688;2023-02-25T11:41:47;8.1;51.2
78516;SHT31;67815;51.990;5.688;2023-02-25T11:44:22;8.1;51.3
78516;SHT31;67815;51.990;5.688;2023-02-25T11:47:01;8.1;53.0
78516;SHT31;67815;51.990;5.688;2023-02-25T11:50:30;8.1;54.7
78516;SHT31;67815;51.990;5.688;2023-02-25T11:53:11;8.2;53.0
78516;SHT31;67815;51.990;5.688;2023-02-25T11:55:54;8.2;49.5
78516;SHT31;67815;51.990;5.688;2023-02-25T11:58:40;8.3;46.8
78516;SHT31;67815;51.990;5.688;2023-02-25T12:01:22;8.3;47.7
78516;SHT31;67815;51.990;5.688;2023-02-25T12:04:02;8.3;46.2
78516;SHT31;67815;51.990;5.688;2023-02-25T12:06:47;8.4;46.2
78516;SHT31;67815;51.990;5.688;2023-02-25T12:09:46;8.4;47.7
78516;SHT31;67815;51.990;5.688;2023-02-25T12:12:57;8.5;46.3
78516;SHT31;67815;51.990;5.688;2023-02-25T12:15:49;8.5;46.0
78516;SHT31;67815;51.990;5.688;2023-02-25T12:19:03;8.6;46.4
78516;SHT31;67815;51.990;5.688;2023-02-25T12:22:28;8.7;46.1
78516;SHT31;67815;51.990;5.688;2023-02-25T12:25:08;8.7;42.9
78516;SHT31;67815;51.990;5.688;2023-02-25T12:28:11;8.7;41.8
78516;SHT31;67815;51.990;5.688;2023-02-25T12:31:07;8.7;42.0
78516;SHT31;67815;51.990;5.688;2023-02-25T12:41:56;8.7;43.3
78516;SHT31;67815;51.990;5.688;2023-02-25T12:47:34;8.8;43.1
78516;SHT31;67815;51.990;5.688;2023-02-25T12:53:22;8.8;40.4
78516;SHT31;67815;51.990;5.688;2023-02-25T12:59:48;8.8;40.9
78516;SHT31;67815;51.990;5.688;2023-02-25T13:02:43;8.7;39.8
78516;SHT31;67815;51.990;5.688;2023-02-25T13:06:10;8.8;40.8
78516;SHT31;67815;51.990;5.688;2023-02-25T13:09:03;8.8;41.7
78516;SHT31;67815;51.990;5.688;2023-02-25T13:11:50;8.8;40.6
78516;SHT31;67815;51.990;5.688;2023-02-25T13:14:31;8.8;42.0
78516;SHT31;67815;51.990;5.688;2023-02-25T13:17:26;8.8;40.1
78516;SHT31;67815;51.990;5.688;2023-02-25T13:20:34;8.8;39.9
78516;SHT31;67815;51.990;5.688;2023-02-25T13:23:15;8.8;41.4
78516;SHT31;67815;51.990;5.688;2023-02-25T13:26:01;8.8;42.1
78516;SHT31;67815;51.990;5.688;2023-02-25T13:28:48;8.8;43.0
78516;SHT31;67815;51.990;5.688;2023-02-25T13:31:30;8.9;40.8
78516;SHT31;67815;51.990;5.688;2023-02-25T13:34:17;8.9;41.1
78516;SHT31;67815;51.990;5.688;2023-02-25T13:37:05;8.9;41.3
78516;SHT31;67815;51.990;5.688;2023-02-25T13:41:10;8.9;41.4
78516;SHT31;67815;51.990;5.688;2023-02-25T13:44:53;8.9;40.6
78516;SHT31;67815;51.990;5.688;2023-02-25T13:47:49;8.9;41.7
78516;SHT31;67815;51.990;5.688;2023-02-25T13:50:58;8.8;41.6
78516;SHT31;67815;51.990;5.688;2023-02-25T13:53:46;8.8;42.1
78516;SHT31;67815;51.990;5.688;2023-02-25T13:57:06;8.8;40.7
78516;SHT31;67815;51.990;5.688;2023-02-25T13:59:53;8.9;40.9
78516;SHT31;67815;51.990;5.688;2023-02-25T14:03:27;8.9;41.2
78516;SHT31;67815;51.990;5.688;2023-02-25T14:06:13;8.9;39.7
78516;SHT31;67815;51.990;5.688;2023-02-25T14:09:03;8.9;41.3
78516;SHT31;67815;51.990;5.688;2023-02-25T14:11:44;8.9;39.3
78516;SHT31;67815;51.990;5.688;2023-02-25T14:14:37;8.9;40.2
78516;SHT31;67815;51.990;5.688;2023-02-25T14:18:01;8.9;41.4
78516;SHT31;67815;51.990;5.688;2023-02-25T14:20:38;8.9;40.5
78516;SHT31;67815;51.990;5.688;2023-02-25T14:23:15;8.9;39.3
78516;SHT31;67815;51.990;5.688;2023-02-25T14:26:04;9.0;39.5
78516;SHT31;67815;51.990;5.688;2023-02-25T14:28:46;9.0;39.3
78516;SHT31;67815;51.990;5.688;2023-02-25T14:31:24;9.0;40.0
78516;SHT31;67815;51.990;5.688;2023-02-25T14:34:08;9.0;39.5
78516;SHT31;67815;51.990;5.688;2023-02-25T14:37:32;9.0;39.0
78516;SHT31;67815;51.990;5.688;2023-02-25T14:40:26;8.9;38.2
78516;SHT31;67815;51.990;5.688;2023-02-25T14:44:02;8.9;38.2
78516;SHT31;67815;51.990;5.688;2023-02-25T14:46:40;8.8;40.0
78516;SHT31;67815;51.990;5.688;2023-02-25T14:49:16;8.8;39.1
78516;SHT31;67815;51.990;5.688;2023-02-25T14:52:44;8.8;39.8
78516;SHT31;67815;51.990;5.688;2023-02-25T14:56:08;8.7;37.6
78516;SHT31;67815;51.990;5.688;2023-02-25T14:59:05;8.7;37.1
78516;SHT31;67815;51.990;5.688;2023-02-25T15:04:03;8.7;37.8
78516;SHT31;67815;51.990;5.688;2023-02-25T15:06:51;8.7;37.0
78516;SHT31;67815;51.990;5.688;2023-02-25T15:10:01;8.7;34.8
78516;SHT31;67815;51.990;5.688;2023-02-25T15:13:15;8.7;34.8
78516;SHT31;67815;51.990;5.688;2023-02-25T15:17:21;8.6;34.8
78516;SHT31;67815;51.990;5.688;2023-02-25T15:20:03;8.6;37.8
78516;SHT31;67815;51.990;5.688;2023-02-25T15:22:54;8.6;35.5
78516;SHT31;67815;51.990;5.688;2023-02-25T15:25:37;8.6;35.7
78516;SHT31;67815;51.990;5.688;2023-02-25T15:28:35;8.6;34.5
78516;SHT31;67815;51.990;5.688;2023-02-25T15:31:09;8.6;34.0
78516;SHT31;67815;51.990;5.688;2023-02-25T15:33:40;8.6;33.9
78516;SHT31;67815;51.990;5.688;2023-02-25T15:36:41;8.6;34.5
78516;SHT31;67815;51.990;5.688;2023-02-25T15:39:48;8.6;35.3
78516;SHT31;67815;51.990;5.688;2023-02-25T15:42:45;8.5;35.3
78516;SHT31;67815;51.990;5.688;2023-02-25T15:45:36;8.5;35.5
78516;SHT31;67815;51.990;5.688;2023-02-25T15:48:23;8.4;35.2
78516;SHT31;67815;51.990;5.688;2023-02-25T15:50:57;8.4;35.5
78516;SHT31;67815;51.990;5.688;2023-02-25T15:53:39;8.4;36.1
78516;SHT31;67815;51.990;5.688;2023-02-25T16:00:56;8.3;36.2
78516;SHT31;67815;51.990;5.688;2023-02-25T16:03:41;8.3;36.0
78516;SHT31;67815;51.990;5.688;2023-02-25T16:06:15;8.3;36.5
78516;SHT31;67815;51.990;5.688;2023-02-25T16:08:50;8.3;36.9
78516;SHT31;67815;51.990;5.688;2023-02-25T16:11:26;8.2;36.2
78516;SHT31;67815;51.990;5.688;2023-02-25T16:13:59;8.2;37.6
78516;SHT31;67815;51.990;5.688;2023-02-25T16:16:33;8.2;37.3
78516;SHT31;67815;51.990;5.688;2023-02-25T16:19:06;8.2;37.9
78516;SHT31;67815;51.990;5.688;2023-02-25T16:21:43;8.1;37.4
78516;SHT31;67815;51.990;5.688;2023-02-25T16:24:15;8.1;37.7
78516;SHT31;67815;51.990;5.688;2023-02-25T16:26:56;8.1;37.7
78516;SHT31;67815;51.990;5.688;2023-02-25T16:29:38;8.1;38.2
78516;SHT31;67815;51.990;5.688;2023-02-25T16:32:24;8.1;38.8
78516;SHT31;67815;51.990;5.688;2023-02-25T16:35:05;8.1;39.2
78516;SHT31;67815;51.990;5.688;2023-02-25T16:37:48;8.1;39.7
78516;SHT31;67815;51.990;5.688;2023-02-25T16:40:23;8.1;39.7
78516;SHT31;67815;51.990;5.688;2023-02-25T16:42:57;8.0;39.5
78516;SHT31;67815;51.990;5.688;2023-02-25T16:45:30;8.0;39.3
78516;SHT31;67815;51.990;5.688;2023-02-25T16:48:06;8.0;38.7
78516;SHT31;67815;51.990;5.688;2023-02-25T16:50:37;7.9;39.6
78516;SHT31;67815;51.990;5.688;2023-02-25T16:53:17;7.9;40.5
78516;SHT31;67815;51.990;5.688;2023-02-25T16:55:47;7.9;39.3
78516;SHT31;67815;51.990;5.688;2023-02-25T16:58:23;7.8;39.4
78516;SHT31;67815;51.990;5.688;2023-02-25T17:00:55;7.8;39.3
78516;SHT31;67815;51.990;5.688;2023-02-25T17:03:28;7.8;39.4
78516;SHT31;67815;51.990;5.688;2023-02-25T17:06:02;7.8;39.1
78516;SHT31;67815;51.990;5.688;2023-02-25T17:08:34;7.7;39.4
78516;SHT31;67815;51.990;5.688;2023-02-25T17:11:06;7.7;40.4
78516;SHT31;67815;51.990;5.688;2023-02-25T17:13:42;7.7;40.2
78516;SHT31;67815;51.990;5.688;2023-02-25T17:16:19;7.7;40.1
78516;SHT31;67815;51.990;5.688;2023-02-25T17:18:53;7.6;40.1
78516;SHT31;67815;51.990;5.688;2023-02-25T17:21:28;7.6;41.2
78516;SHT31;67815;51.990;5.688;2023-02-25T17:24:03;7.6;40.6
78516;SHT31;67815;51.990;5.688;2023-02-25T17:26:40;7.6;40.2
78516;SHT31;67815;51.990;5.688;2023-02-25T17:29:14;7.5;41.3
78516;SHT31;67815;51.990;5.688;2023-02-25T17:31:46;7.5;40.7
78516;SHT31;67815;51.990;5.688;2023-02-25T17:34:21;7.5;41.0
78516;SHT31;67815;51.990;5.688;2023-02-25T17:36:55;7.5;41.1
78516;SHT31;67815;51.990;5.688;2023-02-25T17:39:27;7.4;40.8
78516;SHT31;67815;51.990;5.688;2023-02-25T17:41:58;7.4;40.8
78516;SHT31;67815;51.990;5.688;2023-02-25T17:44:43;7.4;41.2
78516;SHT31;67815;51.990;5.688;2023-02-25T17:47:21;7.4;41.2
78516;SHT31;67815;51.990;5.688;2023-02-25T17:49:54;7.3;41.5
78516;SHT31;67815;51.990;5.688;2023-02-25T17:52:28;7.3;41.8